sensor_id;sensor_type;location;lat;lon;timestamp;P1;durP1;ratioP1;P2;durP2;ratioP2
43857;SDS011;29507;51.284;5.758;2022-10-16T00:00:43;6.40;;;3.03;;
43857;SDS011;29507;51.284;5.758;2022-10-16T00:03:09;4.30;;;2.58;;
43857;SDS011;29507;51.284;5.758;2022-10-16T00:05:40;7.20;;;2.30;;
43857;SDS011;29507;51.284;5.758;2022-10-16T00:08:07;4.70;;;2.80;;
43857;SDS011;29507;51.284;5.758;2022-10-16T00:10:33;4.53;;;2.20;;
43857;SDS011;29507;51.284;5.758;2022-10-16T00:12:59;5.10;;;2.55;;
43857;SDS011;29507;51.284;5.758;2022-10-16T00:15:24;5.43;;;2.38;;
43857;SDS011;29507;51.284;5.758;2022-10-16T00:17:50;5.95;;;2.72;;
43857;SDS011;29507;51.284;5.758;2022-10-16T00:20:16;4.57;;;2.42;;
43857;SDS011;29507;51.284;5.758;2022-10-16T00:22:41;5.53;;;2.50;;
43857;SDS011;29507;51.284;5.758;2022-10-16T00:25:07;4.25;;;2.38;;
43857;SDS011;29507;51.284;5.758;2022-10-16T00:27:33;7.28;;;2.58;;
43857;SDS011;29507;51.284;5.758;2022-10-16T00:29:59;5.63;;;2.17;;
43857;SDS011;29507;51.284;5.758;2022-10-16T00:32:24;5.10;;;2.30;;
43857;SDS011;29507;51.284;5.758;2022-10-16T00:34:50;4.78;;;2.30;;
43857;SDS011;29507;51.284;5.758;2022-10-16T00:37:15;3.45;;;1.50;;
43857;SDS011;29507;51.284;5.758;2022-10-16T00:39:41;4.88;;;1.80;;
43857;SDS011;29507;51.284;5.758;2022-10-16T00:42:08;3.88;;;1.40;;
43857;SDS011;29507;51.284;5.758;2022-10-16T00:44:55;4.60;;;1.77;;
43857;SDS011;29507;51.284;5.758;2022-10-16T00:52:51;2.95;;;1.52;;
43857;SDS011;29507;51.284;5.758;2022-10-16T00:55:19;3.85;;;1.63;;
43857;SDS011;29507;51.284;5.758;2022-10-16T00:57:45;5.28;;;2.03;;
43857;SDS011;29507;51.284;5.758;2022-10-16T01:00:12;3.35;;;1.85;;
43857;SDS011;29507;51.284;5.758;2022-10-16T01:02:41;3.88;;;1.63;;
43857;SDS011;29507;51.284;5.758;2022-10-16T01:05:07;3.22;;;1.73;;
43857;SDS011;29507;51.284;5.758;2022-10-16T01:07:43;3.38;;;1.45;;
43857;SDS011;29507;51.284;5.758;2022-10-16T01:15:38;3.40;;;1.38;;
43857;SDS011;29507;51.284;5.758;2022-10-16T01:21:12;2.60;;;1.35;;
43857;SDS011;29507;51.284;5.758;2022-10-16T01:29:07;3.80;;;1.40;;
43857;SDS011;29507;51.284;5.758;2022-10-16T01:31:40;3.10;;;1.33;;
43857;SDS011;29507;51.284;5.758;2022-10-16T01:36:42;4.95;;;1.60;;
43857;SDS011;29507;51.284;5.758;2022-10-16T01:39:18;2.47;;;1.20;;
43857;SDS011;29507;51.284;5.758;2022-10-16T01:41:48;3.42;;;1.40;;
43857;SDS011;29507;51.284;5.758;2022-10-16T01:44:18;3.92;;;1.10;;
43857;SDS011;29507;51.284;5.758;2022-10-16T01:46:47;3.38;;;1.13;;
43857;SDS011;29507;51.284;5.758;2022-10-16T01:49:15;3.22;;;1.25;;
43857;SDS011;29507;51.284;5.758;2022-10-16T01:51:43;2.40;;;1.00;;
43857;SDS011;29507;51.284;5.758;2022-10-16T01:54:11;2.88;;;1.10;;
43857;SDS011;29507;51.284;5.758;2022-10-16T01:56:38;2.50;;;1.42;;
43857;SDS011;29507;51.284;5.758;2022-10-16T01:59:06;4.13;;;1.30;;
43857;SDS011;29507;51.284;5.758;2022-10-16T02:01:36;4.03;;;1.10;;
43857;SDS011;29507;51.284;5.758;2022-10-16T02:04:26;2.45;;;1.30;;
43857;SDS011;29507;51.284;5.758;2022-10-16T02:07:01;2.22;;;1.10;;
43857;SDS011;29507;51.284;5.758;2022-10-16T02:09:27;3.50;;;1.60;;
43857;SDS011;29507;51.284;5.758;2022-10-16T02:11:53;6.55;;;1.85;;
43857;SDS011;29507;51.284;5.758;2022-10-16T02:14:21;3.58;;;1.33;;
43857;SDS011;29507;51.284;5.758;2022-10-16T02:16:49;4.43;;;1.58;;
43857;SDS011;29507;51.284;5.758;2022-10-16T02:19:16;3.05;;;1.60;;
43857;SDS011;29507;51.284;5.758;2022-10-16T02:21:51;6.30;;;1.50;;
43857;SDS011;29507;51.284;5.758;2022-10-16T02:29:38;2.80;;;1.60;;
43857;SDS011;29507;51.284;5.758;2022-10-16T02:32:09;4.18;;;1.60;;
43857;SDS011;29507;51.284;5.758;2022-10-16T02:34:37;3.20;;;1.30;;
43857;SDS011;29507;51.284;5.758;2022-10-16T02:37:05;5.47;;;1.70;;
43857;SDS011;29507;51.284;5.758;2022-10-16T02:39:31;3.80;;;1.30;;
43857;SDS011;29507;51.284;5.758;2022-10-16T02:41:58;6.10;;;1.45;;
43857;SDS011;29507;51.284;5.758;2022-10-16T02:44:24;3.58;;;1.67;;
43857;SDS011;29507;51.284;5.758;2022-10-16T02:46:49;2.88;;;1.30;;
43857;SDS011;29507;51.284;5.758;2022-10-16T02:49:15;2.63;;;1.17;;
43857;SDS011;29507;51.284;5.758;2022-10-16T02:51:41;4.65;;;1.70;;
43857;SDS011;29507;51.284;5.758;2022-10-16T02:54:06;2.22;;;1.20;;
43857;SDS011;29507;51.284;5.758;2022-10-16T02:56:32;3.33;;;1.10;;
43857;SDS011;29507;51.284;5.758;2022-10-16T02:58:58;2.97;;;1.20;;
43857;SDS011;29507;51.284;5.758;2022-10-16T03:01:23;2.67;;;1.27;;
43857;SDS011;29507;51.284;5.758;2022-10-16T03:03:49;2.63;;;1.30;;
43857;SDS011;29507;51.284;5.758;2022-10-16T03:06:15;2.88;;;1.35;;
43857;SDS011;29507;51.284;5.758;2022-10-16T03:08:41;2.42;;;1.20;;
43857;SDS011;29507;51.284;5.758;2022-10-16T03:11:06;5.05;;;1.58;;
43857;SDS011;29507;51.284;5.758;2022-10-16T03:13:32;2.35;;;1.50;;
43857;SDS011;29507;51.284;5.758;2022-10-16T03:15:57;3.45;;;1.70;;
43857;SDS011;29507;51.284;5.758;2022-10-16T03:18:23;3.33;;;1.75;;
43857;SDS011;29507;51.284;5.758;2022-10-16T03:20:48;4.30;;;1.90;;
43857;SDS011;29507;51.284;5.758;2022-10-16T03:23:14;3.88;;;1.42;;
43857;SDS011;29507;51.284;5.758;2022-10-16T03:25:40;2.75;;;1.45;;
43857;SDS011;29507;51.284;5.758;2022-10-16T03:28:05;5.20;;;1.60;;
43857;SDS011;29507;51.284;5.758;2022-10-16T03:30:31;2.88;;;1.60;;
43857;SDS011;29507;51.284;5.758;2022-10-16T03:32:57;2.83;;;1.50;;
43857;SDS011;29507;51.284;5.758;2022-10-16T03:35:23;4.00;;;1.30;;
43857;SDS011;29507;51.284;5.758;2022-10-16T03:37:49;10.25;;;1.58;;
43857;SDS011;29507;51.284;5.758;2022-10-16T03:40:16;2.78;;;1.23;;
43857;SDS011;29507;51.284;5.758;2022-10-16T03:42:42;3.53;;;1.25;;
43857;SDS011;29507;51.284;5.758;2022-10-16T03:45:08;3.33;;;1.48;;
43857;SDS011;29507;51.284;5.758;2022-10-16T03:47:34;4.50;;;1.60;;
43857;SDS011;29507;51.284;5.758;2022-10-16T03:49:59;2.50;;;1.30;;
43857;SDS011;29507;51.284;5.758;2022-10-16T03:52:25;2.03;;;1.00;;
43857;SDS011;29507;51.284;5.758;2022-10-16T03:54:51;3.85;;;1.20;;
43857;SDS011;29507;51.284;5.758;2022-10-16T03:57:16;2.63;;;1.15;;
43857;SDS011;29507;51.284;5.758;2022-10-16T03:59:42;3.95;;;1.27;;
43857;SDS011;29507;51.284;5.758;2022-10-16T04:02:08;3.22;;;1.38;;
43857;SDS011;29507;51.284;5.758;2022-10-16T04:04:34;3.13;;;1.40;;
43857;SDS011;29507;51.284;5.758;2022-10-16T04:06:59;6.72;;;1.67;;
43857;SDS011;29507;51.284;5.758;2022-10-16T04:09:25;2.55;;;1.40;;
43857;SDS011;29507;51.284;5.758;2022-10-16T04:11:51;3.40;;;1.20;;
43857;SDS011;29507;51.284;5.758;2022-10-16T04:14:17;3.38;;;1.17;;
43857;SDS011;29507;51.284;5.758;2022-10-16T04:16:42;3.00;;;1.35;;
43857;SDS011;29507;51.284;5.758;2022-10-16T04:19:08;3.08;;;1.55;;
43857;SDS011;29507;51.284;5.758;2022-10-16T04:21:34;4.82;;;1.38;;
43857;SDS011;29507;51.284;5.758;2022-10-16T04:24:00;2.13;;;1.05;;
43857;SDS011;29507;51.284;5.758;2022-10-16T04:26:25;3.05;;;1.10;;
43857;SDS011;29507;51.284;5.758;2022-10-16T04:28:51;6.22;;;1.27;;
43857;SDS011;29507;51.284;5.758;2022-10-16T04:31:16;2.85;;;1.20;;
43857;SDS011;29507;51.284;5.758;2022-10-16T04:33:42;5.50;;;1.40;;
43857;SDS011;29507;51.284;5.758;2022-10-16T04:36:08;3.58;;;1.02;;
43857;SDS011;29507;51.284;5.758;2022-10-16T04:38:34;5.50;;;1.30;;
43857;SDS011;29507;51.284;5.758;2022-10-16T04:41:00;2.95;;;1.13;;
43857;SDS011;29507;51.284;5.758;2022-10-16T04:43:25;5.47;;;1.10;;
43857;SDS011;29507;51.284;5.758;2022-10-16T04:45:51;2.60;;;1.30;;
43857;SDS011;29507;51.284;5.758;2022-10-16T04:48:18;3.75;;;1.20;;
43857;SDS011;29507;51.284;5.758;2022-10-16T04:50:43;4.25;;;1.40;;
43857;SDS011;29507;51.284;5.758;2022-10-16T04:53:09;4.43;;;1.10;;
43857;SDS011;29507;51.284;5.758;2022-10-16T04:55:35;3.58;;;1.10;;
43857;SDS011;29507;51.284;5.758;2022-10-16T04:58:01;6.95;;;1.20;;
43857;SDS011;29507;51.284;5.758;2022-10-16T05:00:26;7.15;;;1.30;;
43857;SDS011;29507;51.284;5.758;2022-10-16T05:02:52;2.80;;;1.40;;
43857;SDS011;29507;51.284;5.758;2022-10-16T05:05:18;2.72;;;1.10;;
43857;SDS011;29507;51.284;5.758;2022-10-16T05:07:47;2.17;;;1.33;;
43857;SDS011;29507;51.284;5.758;2022-10-16T05:10:12;2.33;;;1.00;;
43857;SDS011;29507;51.284;5.758;2022-10-16T05:12:38;2.35;;;1.00;;
43857;SDS011;29507;51.284;5.758;2022-10-16T05:15:04;2.95;;;1.23;;
43857;SDS011;29507;51.284;5.758;2022-10-16T05:17:30;3.47;;;1.40;;
43857;SDS011;29507;51.284;5.758;2022-10-16T05:19:55;1.88;;;1.10;;
43857;SDS011;29507;51.284;5.758;2022-10-16T05:22:21;3.60;;;1.30;;
43857;SDS011;29507;51.284;5.758;2022-10-16T05:24:47;3.67;;;1.48;;
43857;SDS011;29507;51.284;5.758;2022-10-16T05:27:12;2.72;;;1.13;;
43857;SDS011;29507;51.284;5.758;2022-10-16T05:29:44;3.88;;;1.50;;
43857;SDS011;29507;51.284;5.758;2022-10-16T05:32:11;2.67;;;1.10;;
43857;SDS011;29507;51.284;5.758;2022-10-16T05:34:37;6.95;;;1.27;;
43857;SDS011;29507;51.284;5.758;2022-10-16T05:37:02;2.83;;;1.40;;
43857;SDS011;29507;51.284;5.758;2022-10-16T05:39:28;8.32;;;1.45;;
43857;SDS011;29507;51.284;5.758;2022-10-16T05:41:54;4.28;;;1.42;;
43857;SDS011;29507;51.284;5.758;2022-10-16T05:44:19;3.35;;;1.30;;
43857;SDS011;29507;51.284;5.758;2022-10-16T05:46:45;2.78;;;1.23;;
43857;SDS011;29507;51.284;5.758;2022-10-16T05:49:12;7.70;;;1.67;;
43857;SDS011;29507;51.284;5.758;2022-10-16T05:51:37;3.83;;;1.13;;
43857;SDS011;29507;51.284;5.758;2022-10-16T05:54:03;3.53;;;1.20;;
43857;SDS011;29507;51.284;5.758;2022-10-16T05:56:28;3.40;;;1.77;;
43857;SDS011;29507;51.284;5.758;2022-10-16T05:58:54;2.92;;;1.60;;
43857;SDS011;29507;51.284;5.758;2022-10-16T06:01:20;7.38;;;2.50;;
43857;SDS011;29507;51.284;5.758;2022-10-16T06:03:48;8.65;;;1.35;;
43857;SDS011;29507;51.284;5.758;2022-10-16T06:06:18;5.97;;;1.52;;
43857;SDS011;29507;51.284;5.758;2022-10-16T06:08:45;2.35;;;1.42;;
43857;SDS011;29507;51.284;5.758;2022-10-16T06:11:13;5.47;;;1.40;;
43857;SDS011;29507;51.284;5.758;2022-10-16T06:13:51;3.58;;;1.52;;
43857;SDS011;29507;51.284;5.758;2022-10-16T06:16:17;4.75;;;1.50;;
43857;SDS011;29507;51.284;5.758;2022-10-16T06:18:44;3.67;;;1.38;;
43857;SDS011;29507;51.284;5.758;2022-10-16T06:21:10;5.15;;;1.92;;
43857;SDS011;29507;51.284;5.758;2022-10-16T06:23:41;4.07;;;1.48;;
43857;SDS011;29507;51.284;5.758;2022-10-16T06:26:08;4.72;;;1.48;;
43857;SDS011;29507;51.284;5.758;2022-10-16T06:28:36;3.10;;;1.60;;
43857;SDS011;29507;51.284;5.758;2022-10-16T06:31:02;7.95;;;1.50;;
43857;SDS011;29507;51.284;5.758;2022-10-16T06:33:29;5.85;;;1.67;;
43857;SDS011;29507;51.284;5.758;2022-10-16T06:36:02;4.22;;;1.45;;
43857;SDS011;29507;51.284;5.758;2022-10-16T06:38:30;6.00;;;1.75;;
43857;SDS011;29507;51.284;5.758;2022-10-16T06:40:57;2.35;;;1.17;;
43857;SDS011;29507;51.284;5.758;2022-10-16T06:43:23;5.68;;;1.60;;
43857;SDS011;29507;51.284;5.758;2022-10-16T06:45:55;3.10;;;1.48;;
43857;SDS011;29507;51.284;5.758;2022-10-16T06:48:21;4.40;;;1.60;;
43857;SDS011;29507;51.284;5.758;2022-10-16T06:51:02;3.42;;;1.35;;
43857;SDS011;29507;51.284;5.758;2022-10-16T06:53:34;4.22;;;1.88;;
43857;SDS011;29507;51.284;5.758;2022-10-16T06:56:14;5.90;;;1.70;;
43857;SDS011;29507;51.284;5.758;2022-10-16T06:58:45;3.55;;;1.48;;
43857;SDS011;29507;51.284;5.758;2022-10-16T07:01:11;2.80;;;1.85;;
43857;SDS011;29507;51.284;5.758;2022-10-16T07:03:42;2.97;;;1.55;;
43857;SDS011;29507;51.284;5.758;2022-10-16T07:06:10;4.35;;;1.98;;
43857;SDS011;29507;51.284;5.758;2022-10-16T07:08:38;3.10;;;1.33;;
43857;SDS011;29507;51.284;5.758;2022-10-16T07:11:06;3.17;;;1.35;;
43857;SDS011;29507;51.284;5.758;2022-10-16T07:13:33;5.82;;;1.65;;
43857;SDS011;29507;51.284;5.758;2022-10-16T07:18:35;2.25;;;1.02;;
43857;SDS011;29507;51.284;5.758;2022-10-16T07:21:08;4.50;;;1.75;;
43857;SDS011;29507;51.284;5.758;2022-10-16T07:23:35;3.38;;;1.27;;
43857;SDS011;29507;51.284;5.758;2022-10-16T07:26:01;4.30;;;1.35;;
43857;SDS011;29507;51.284;5.758;2022-10-16T07:28:27;4.32;;;1.40;;
43857;SDS011;29507;51.284;5.758;2022-10-16T07:30:53;5.03;;;1.40;;
43857;SDS011;29507;51.284;5.758;2022-10-16T07:33:19;4.60;;;1.40;;
43857;SDS011;29507;51.284;5.758;2022-10-16T07:35:49;3.90;;;1.38;;
43857;SDS011;29507;51.284;5.758;2022-10-16T07:38:15;2.78;;;1.30;;
43857;SDS011;29507;51.284;5.758;2022-10-16T07:40:41;3.33;;;1.40;;
43857;SDS011;29507;51.284;5.758;2022-10-16T07:43:06;4.00;;;1.50;;
43857;SDS011;29507;51.284;5.758;2022-10-16T07:45:32;3.20;;;1.35;;
43857;SDS011;29507;51.284;5.758;2022-10-16T07:47:58;5.05;;;1.23;;
43857;SDS011;29507;51.284;5.758;2022-10-16T07:50:23;5.28;;;1.13;;
43857;SDS011;29507;51.284;5.758;2022-10-16T07:52:49;2.17;;;1.20;;
43857;SDS011;29507;51.284;5.758;2022-10-16T07:55:14;4.50;;;1.30;;
43857;SDS011;29507;51.284;5.758;2022-10-16T07:57:40;4.00;;;1.15;;
43857;SDS011;29507;51.284;5.758;2022-10-16T08:00:06;6.57;;;1.10;;
43857;SDS011;29507;51.284;5.758;2022-10-16T08:02:32;5.70;;;1.20;;
43857;SDS011;29507;51.284;5.758;2022-10-16T08:04:57;3.47;;;1.20;;
43857;SDS011;29507;51.284;5.758;2022-10-16T08:07:23;5.22;;;1.10;;
43857;SDS011;29507;51.284;5.758;2022-10-16T08:09:49;4.00;;;1.00;;
43857;SDS011;29507;51.284;5.758;2022-10-16T08:12:16;4.80;;;1.60;;
43857;SDS011;29507;51.284;5.758;2022-10-16T08:14:42;3.50;;;0.90;;
43857;SDS011;29507;51.284;5.758;2022-10-16T08:17:08;3.10;;;1.38;;
43857;SDS011;29507;51.284;5.758;2022-10-16T08:19:33;4.68;;;0.85;;
43857;SDS011;29507;51.284;5.758;2022-10-16T08:21:59;3.35;;;1.00;;
43857;SDS011;29507;51.284;5.758;2022-10-16T08:24:25;3.65;;;1.42;;
43857;SDS011;29507;51.284;5.758;2022-10-16T08:26:53;2.17;;;0.80;;
43857;SDS011;29507;51.284;5.758;2022-10-16T08:29:19;2.72;;;0.90;;
43857;SDS011;29507;51.284;5.758;2022-10-16T08:31:45;2.83;;;1.00;;
43857;SDS011;29507;51.284;5.758;2022-10-16T08:34:10;3.88;;;0.80;;
43857;SDS011;29507;51.284;5.758;2022-10-16T08:36:36;6.00;;;1.13;;
43857;SDS011;29507;51.284;5.758;2022-10-16T08:39:02;5.28;;;0.95;;
43857;SDS011;29507;51.284;5.758;2022-10-16T08:41:32;5.35;;;0.80;;
43857;SDS011;29507;51.284;5.758;2022-10-16T08:44:19;1.98;;;0.85;;
43857;SDS011;29507;51.284;5.758;2022-10-16T08:47:02;5.75;;;0.65;;
43857;SDS011;29507;51.284;5.758;2022-10-16T08:49:47;4.05;;;0.90;;
43857;SDS011;29507;51.284;5.758;2022-10-16T08:52:18;3.60;;;0.70;;
43857;SDS011;29507;51.284;5.758;2022-10-16T08:54:45;3.63;;;1.08;;
43857;SDS011;29507;51.284;5.758;2022-10-16T08:57:17;3.72;;;0.98;;
43857;SDS011;29507;51.284;5.758;2022-10-16T08:59:45;3.17;;;1.00;;
43857;SDS011;29507;51.284;5.758;2022-10-16T09:02:28;3.80;;;0.70;;
43857;SDS011;29507;51.284;5.758;2022-10-16T09:05:38;2.47;;;0.80;;
43857;SDS011;29507;51.284;5.758;2022-10-16T09:08:17;4.25;;;1.10;;
43857;SDS011;29507;51.284;5.758;2022-10-16T09:11:51;2.28;;;0.90;;
43857;SDS011;29507;51.284;5.758;2022-10-16T09:14:18;2.30;;;1.10;;
43857;SDS011;29507;51.284;5.758;2022-10-16T09:22:41;2.42;;;0.60;;
43857;SDS011;29507;51.284;5.758;2022-10-16T09:25:11;2.55;;;0.80;;
43857;SDS011;29507;51.284;5.758;2022-10-16T09:27:38;6.32;;;1.13;;
43857;SDS011;29507;51.284;5.758;2022-10-16T09:30:14;3.92;;;1.20;;
43857;SDS011;29507;51.284;5.758;2022-10-16T09:32:43;3.17;;;0.93;;
43857;SDS011;29507;51.284;5.758;2022-10-16T09:35:18;3.05;;;0.88;;
43857;SDS011;29507;51.284;5.758;2022-10-16T09:37:52;3.20;;;1.00;;
43857;SDS011;29507;51.284;5.758;2022-10-16T09:48:21;3.72;;;0.77;;
43857;SDS011;29507;51.284;5.758;2022-10-16T09:50:57;5.28;;;0.80;;
43857;SDS011;29507;51.284;5.758;2022-10-16T09:53:25;2.17;;;0.68;;
43857;SDS011;29507;51.284;5.758;2022-10-16T09:56:02;2.17;;;0.63;;
43857;SDS011;29507;51.284;5.758;2022-10-16T09:58:30;2.22;;;0.80;;
43857;SDS011;29507;51.284;5.758;2022-10-16T10:00:58;4.50;;;0.80;;
43857;SDS011;29507;51.284;5.758;2022-10-16T10:03:33;5.90;;;1.05;;
43857;SDS011;29507;51.284;5.758;2022-10-16T10:08:55;3.60;;;0.80;;
43857;SDS011;29507;51.284;5.758;2022-10-16T10:11:42;1.90;;;0.68;;
43857;SDS011;29507;51.284;5.758;2022-10-16T10:14:27;1.85;;;0.80;;
43857;SDS011;29507;51.284;5.758;2022-10-16T10:19:37;3.55;;;0.75;;
43857;SDS011;29507;51.284;5.758;2022-10-16T10:27:24;2.20;;;0.95;;
43857;SDS011;29507;51.284;5.758;2022-10-16T10:32:43;4.30;;;0.80;;
43857;SDS011;29507;51.284;5.758;2022-10-16T10:35:22;2.75;;;0.60;;
43857;SDS011;29507;51.284;5.758;2022-10-16T10:40:45;3.22;;;1.35;;
43857;SDS011;29507;51.284;5.758;2022-10-16T10:46:02;2.08;;;0.50;;
43857;SDS011;29507;51.284;5.758;2022-10-16T10:48:47;2.95;;;0.60;;
43857;SDS011;29507;51.284;5.758;2022-10-16T10:51:30;2.80;;;0.70;;
43857;SDS011;29507;51.284;5.758;2022-10-16T10:54:12;2.78;;;0.70;;
43857;SDS011;29507;51.284;5.758;2022-10-16T10:56:50;2.20;;;0.80;;
43857;SDS011;29507;51.284;5.758;2022-10-16T11:02:05;2.65;;;1.00;;
43857;SDS011;29507;51.284;5.758;2022-10-16T11:09:55;2.33;;;0.75;;
43857;SDS011;29507;51.284;5.758;2022-10-16T11:12:34;2.80;;;0.70;;
43857;SDS011;29507;51.284;5.758;2022-10-16T11:15:24;2.67;;;0.65;;
43857;SDS011;29507;51.284;5.758;2022-10-16T11:18:06;1.90;;;0.70;;
43857;SDS011;29507;51.284;5.758;2022-10-16T11:20:45;3.63;;;0.85;;
43857;SDS011;29507;51.284;5.758;2022-10-16T11:23:31;6.10;;;1.17;;
43857;SDS011;29507;51.284;5.758;2022-10-16T11:26:05;3.15;;;0.75;;
43857;SDS011;29507;51.284;5.758;2022-10-16T11:28:51;2.90;;;0.80;;
43857;SDS011;29507;51.284;5.758;2022-10-16T11:31:32;2.65;;;0.75;;
43857;SDS011;29507;51.284;5.758;2022-10-16T11:37:05;5.00;;;0.80;;
43857;SDS011;29507;51.284;5.758;2022-10-16T11:39:41;2.38;;;1.15;;
43857;SDS011;29507;51.284;5.758;2022-10-16T11:42:13;3.35;;;0.88;;
43857;SDS011;29507;51.284;5.758;2022-10-16T11:44:46;2.60;;;0.50;;
43857;SDS011;29507;51.284;5.758;2022-10-16T11:55:37;4.97;;;0.98;;
43857;SDS011;29507;51.284;5.758;2022-10-16T12:09:13;3.20;;;1.05;;
43857;SDS011;29507;51.284;5.758;2022-10-16T12:11:46;3.08;;;1.00;;
43857;SDS011;29507;51.284;5.758;2022-10-16T12:16:38;3.22;;;0.90;;
43857;SDS011;29507;51.284;5.758;2022-10-16T12:19:25;2.28;;;0.60;;
43857;SDS011;29507;51.284;5.758;2022-10-16T12:21:54;4.72;;;0.70;;
43857;SDS011;29507;51.284;5.758;2022-10-16T12:24:27;2.97;;;0.85;;
43857;SDS011;29507;51.284;5.758;2022-10-16T12:26:55;3.80;;;0.80;;
43857;SDS011;29507;51.284;5.758;2022-10-16T12:29:30;3.95;;;0.80;;
43857;SDS011;29507;51.284;5.758;2022-10-16T12:32:50;2.72;;;0.60;;
43857;SDS011;29507;51.284;5.758;2022-10-16T12:34:50;1.70;;;0.82;;
43857;SDS011;29507;51.284;5.758;2022-10-16T12:37:23;3.42;;;0.65;;
43857;SDS011;29507;51.284;5.758;2022-10-16T12:39:51;1.48;;;0.43;;
43857;SDS011;29507;51.284;5.758;2022-10-16T12:42:20;1.92;;;0.73;;
43857;SDS011;29507;51.284;5.758;2022-10-16T12:44:48;3.03;;;0.80;;
43857;SDS011;29507;51.284;5.758;2022-10-16T12:47:48;1.58;;;0.70;;
43857;SDS011;29507;51.284;5.758;2022-10-16T12:50:26;2.58;;;0.82;;
43857;SDS011;29507;51.284;5.758;2022-10-16T12:52:56;5.18;;;0.98;;
43857;SDS011;29507;51.284;5.758;2022-10-16T12:55:22;2.28;;;0.50;;
43857;SDS011;29507;51.284;5.758;2022-10-16T13:01:03;3.05;;;0.63;;
43857;SDS011;29507;51.284;5.758;2022-10-16T13:03:42;1.17;;;0.40;;
43857;SDS011;29507;51.284;5.758;2022-10-16T13:06:38;1.65;;;0.60;;
43857;SDS011;29507;51.284;5.758;2022-10-16T13:19:35;3.50;;;0.57;;
43857;SDS011;29507;51.284;5.758;2022-10-16T13:30:16;2.15;;;0.50;;
43857;SDS011;29507;51.284;5.758;2022-10-16T13:32:46;5.25;;;0.80;;
43857;SDS011;29507;51.284;5.758;2022-10-16T13:35:33;4.25;;;0.82;;
43857;SDS011;29507;51.284;5.758;2022-10-16T13:38:11;4.50;;;0.82;;
43857;SDS011;29507;51.284;5.758;2022-10-16T13:43:45;1.95;;;0.43;;
43857;SDS011;29507;51.284;5.758;2022-10-16T13:46:17;1.83;;;0.75;;
43857;SDS011;29507;51.284;5.758;2022-10-16T13:48:44;3.10;;;0.60;;
43857;SDS011;29507;51.284;5.758;2022-10-16T13:51:20;3.05;;;0.80;;
43857;SDS011;29507;51.284;5.758;2022-10-16T13:53:46;4.25;;;1.00;;
43857;SDS011;29507;51.284;5.758;2022-10-16T13:56:16;2.05;;;0.70;;
43857;SDS011;29507;51.284;5.758;2022-10-16T13:58:44;2.17;;;0.70;;
43857;SDS011;29507;51.284;5.758;2022-10-16T14:01:26;2.53;;;0.70;;
43857;SDS011;29507;51.284;5.758;2022-10-16T14:03:59;6.20;;;0.55;;
43857;SDS011;29507;51.284;5.758;2022-10-16T14:06:27;2.60;;;0.50;;
43857;SDS011;29507;51.284;5.758;2022-10-16T14:11:27;2.42;;;0.65;;
43857;SDS011;29507;51.284;5.758;2022-10-16T14:13:53;4.55;;;0.70;;
43857;SDS011;29507;51.284;5.758;2022-10-16T14:16:21;2.22;;;0.47;;
43857;SDS011;29507;51.284;5.758;2022-10-16T14:18:55;2.53;;;0.63;;
43857;SDS011;29507;51.284;5.758;2022-10-16T14:21:23;2.22;;;0.50;;
43857;SDS011;29507;51.284;5.758;2022-10-16T14:23:49;3.25;;;0.40;;
43857;SDS011;29507;51.284;5.758;2022-10-16T14:26:17;1.50;;;0.50;;
43857;SDS011;29507;51.284;5.758;2022-10-16T14:28:46;7.57;;;1.08;;
43857;SDS011;29507;51.284;5.758;2022-10-16T14:33:44;1.63;;;0.63;;
43857;SDS011;29507;51.284;5.758;2022-10-16T14:36:11;1.95;;;0.43;;
43857;SDS011;29507;51.284;5.758;2022-10-16T14:38:41;3.35;;;0.40;;
43857;SDS011;29507;51.284;5.758;2022-10-16T14:41:12;1.67;;;0.57;;
43857;SDS011;29507;51.284;5.758;2022-10-16T14:43:42;1.70;;;0.40;;
43857;SDS011;29507;51.284;5.758;2022-10-16T14:46:15;1.88;;;0.75;;
43857;SDS011;29507;51.284;5.758;2022-10-16T14:48:44;2.90;;;0.57;;
43857;SDS011;29507;51.284;5.758;2022-10-16T14:51:15;3.03;;;0.57;;
43857;SDS011;29507;51.284;5.758;2022-10-16T14:53:42;2.30;;;0.70;;
43857;SDS011;29507;51.284;5.758;2022-10-16T14:56:08;5.53;;;0.90;;
43857;SDS011;29507;51.284;5.758;2022-10-16T14:58:40;2.30;;;0.80;;
43857;SDS011;29507;51.284;5.758;2022-10-16T15:01:07;4.38;;;1.20;;
43857;SDS011;29507;51.284;5.758;2022-10-16T15:03:35;2.08;;;0.75;;
43857;SDS011;29507;51.284;5.758;2022-10-16T15:06:01;3.90;;;0.70;;
43857;SDS011;29507;51.284;5.758;2022-10-16T15:08:27;6.13;;;1.10;;
43857;SDS011;29507;51.284;5.758;2022-10-16T15:10:52;7.10;;;0.75;;
43857;SDS011;29507;51.284;5.758;2022-10-16T15:13:18;2.75;;;0.68;;
43857;SDS011;29507;51.284;5.758;2022-10-16T15:15:44;5.22;;;0.60;;
43857;SDS011;29507;51.284;5.758;2022-10-16T15:18:11;3.38;;;0.77;;
43857;SDS011;29507;51.284;5.758;2022-10-16T15:20:39;3.80;;;0.90;;
43857;SDS011;29507;51.284;5.758;2022-10-16T15:23:09;6.43;;;0.93;;
43857;SDS011;29507;51.284;5.758;2022-10-16T15:25:47;2.33;;;0.93;;
43857;SDS011;29507;51.284;5.758;2022-10-16T15:28:15;2.78;;;0.88;;
43857;SDS011;29507;51.284;5.758;2022-10-16T15:30:41;6.40;;;1.42;;
43857;SDS011;29507;51.284;5.758;2022-10-16T15:33:20;4.00;;;0.80;;
43857;SDS011;29507;51.284;5.758;2022-10-16T15:35:48;4.70;;;1.00;;
43857;SDS011;29507;51.284;5.758;2022-10-16T15:38:15;6.20;;;1.08;;
43857;SDS011;29507;51.284;5.758;2022-10-16T15:40:42;5.03;;;0.85;;
43857;SDS011;29507;51.284;5.758;2022-10-16T15:43:07;7.28;;;1.10;;
43857;SDS011;29507;51.284;5.758;2022-10-16T15:45:34;3.95;;;0.95;;
43857;SDS011;29507;51.284;5.758;2022-10-16T15:47:59;4.88;;;1.35;;
43857;SDS011;29507;51.284;5.758;2022-10-16T15:50:25;4.10;;;1.25;;
43857;SDS011;29507;51.284;5.758;2022-10-16T15:52:51;3.22;;;1.13;;
43857;SDS011;29507;51.284;5.758;2022-10-16T15:55:17;4.20;;;1.25;;
43857;SDS011;29507;51.284;5.758;2022-10-16T15:57:43;5.03;;;0.98;;
43857;SDS011;29507;51.284;5.758;2022-10-16T16:00:10;2.72;;;0.98;;
43857;SDS011;29507;51.284;5.758;2022-10-16T16:02:39;2.30;;;0.90;;
43857;SDS011;29507;51.284;5.758;2022-10-16T16:05:09;6.22;;;1.13;;
43857;SDS011;29507;51.284;5.758;2022-10-16T16:07:36;5.25;;;1.33;;
43857;SDS011;29507;51.284;5.758;2022-10-16T16:10:04;4.38;;;1.20;;
43857;SDS011;29507;51.284;5.758;2022-10-16T16:12:32;5.30;;;1.15;;
43857;SDS011;29507;51.284;5.758;2022-10-16T16:14:58;4.18;;;1.13;;
43857;SDS011;29507;51.284;5.758;2022-10-16T16:17:24;3.13;;;1.48;;
43857;SDS011;29507;51.284;5.758;2022-10-16T16:19:50;3.75;;;1.23;;
43857;SDS011;29507;51.284;5.758;2022-10-16T16:22:15;2.42;;;0.90;;
43857;SDS011;29507;51.284;5.758;2022-10-16T16:24:41;4.72;;;1.08;;
43857;SDS011;29507;51.284;5.758;2022-10-16T16:27:07;4.07;;;1.05;;
43857;SDS011;29507;51.284;5.758;2022-10-16T16:29:33;5.53;;;1.10;;
43857;SDS011;29507;51.284;5.758;2022-10-16T16:31:59;2.75;;;0.88;;
43857;SDS011;29507;51.284;5.758;2022-10-16T16:34:26;5.05;;;1.38;;
43857;SDS011;29507;51.284;5.758;2022-10-16T16:36:53;5.53;;;1.45;;
43857;SDS011;29507;51.284;5.758;2022-10-16T16:39:19;4.72;;;1.33;;
43857;SDS011;29507;51.284;5.758;2022-10-16T16:41:45;3.53;;;1.05;;
43857;SDS011;29507;51.284;5.758;2022-10-16T16:44:11;3.00;;;1.30;;
43857;SDS011;29507;51.284;5.758;2022-10-16T16:46:37;3.78;;;1.17;;
43857;SDS011;29507;51.284;5.758;2022-10-16T16:49:05;3.85;;;1.88;;
43857;SDS011;29507;51.284;5.758;2022-10-16T16:51:31;3.38;;;1.48;;
43857;SDS011;29507;51.284;5.758;2022-10-16T16:53:58;8.55;;;2.15;;
43857;SDS011;29507;51.284;5.758;2022-10-16T16:56:24;5.65;;;1.70;;
43857;SDS011;29507;51.284;5.758;2022-10-16T16:58:51;3.08;;;1.70;;
43857;SDS011;29507;51.284;5.758;2022-10-16T17:01:19;7.75;;;2.20;;
43857;SDS011;29507;51.284;5.758;2022-10-16T17:03:47;6.50;;;1.75;;
43857;SDS011;29507;51.284;5.758;2022-10-16T17:06:14;4.53;;;1.55;;